Latest Weather Observations for Mardie

IDW60801

Issued at 7:02 am WST Friday 4 September 2015 (issued every 30 minutes, with the page automatically refreshed every 10 minutes)

About weather observations | Map of weather stations | Latest weather observations for WA | Other Formats
Station Details ID: 005008 Name: MARDIE Lat: -21.19 Lon: 115.98 Height: 11.0 m
Data from the previous 72 hours. | See also: Recent months at Mardie
Date/Time
WST
Temp
°C
App
Temp
°C
Dew
Point
Rel
Hum
%
Delta-T
°C
Wind Press
QNH
hPa
Press
MSL
hPa
Rain
since 9 am
mm
Dir
 
Spd
km/h
Gust
km/h
Spd
kts
Gust
kts
04/07:00am 12.3 11.1 9.5 83 1.4 WSW 6 7 3 4 1018.1 1018.0 0.0
04/06:30am 11.6 10.1 9.2 85 1.2 SW 7 7 4 4 1017.8 1017.7 0.0
04/06:00am 11.6 10.1 9.0 84 1.3 SW 7 7 4 4 1017.4 1017.3 0.0
04/05:30am 12.2 10.8 9.4 83 1.4 SW 7 9 4 5 1017.0 1016.9 0.0
04/05:00am 13.1 11.5 10.1 82 1.5 SW 9 13 5 7 1016.6 1016.6 0.0
04/04:30am 13.2 11.5 10.0 81 1.6 SW 9 11 5 6 1016.7 1016.7 0.0
04/04:00am 13.8 12.6 10.2 79 1.9 SW 7 9 4 5 1016.7 1016.7 0.0
04/03:30am 14.8 13.3 10.4 75 2.3 SW 9 11 5 6 1017.0 1016.9 0.0
04/03:00am 15.8 14.0 11.0 73 2.6 SW 11 13 6 7 1017.1 1017.0 0.0
04/02:30am 15.9 14.2 11.1 73 2.6 WSW 11 13 6 7 1017.2 1017.1 0.0
04/02:00am 16.0 14.7 11.2 73 2.6 WSW 9 11 5 6 1017.5 1017.4 0.0
04/01:30am 16.4 15.4 11.1 71 2.8 WSW 7 9 4 5 1017.6 1017.5 0.0
04/01:00am 17.3 15.8 11.8 70 3.0 WSW 11 15 6 8 1017.7 1017.6 0.0
04/12:30am 16.9 15.9 13.4 80 2.0 WSW 11 13 6 7 1017.8 1017.7 0.0
04/12:00am 17.3 17.3 14.2 82 1.8 WSW 7 9 4 5 1018.1 1018.0 0.0
 
Date/Time
WST
Temp
°C
App
Temp
°C
Dew
Point
Rel
Hum
%
Delta-T
°C
Wind Press
QNH
hPa
Press
MSL
hPa
Rain
since 9 am
mm
Dir
 
Spd
km/h
Gust
km/h
Spd
kts
Gust
kts
03/11:30pm 17.9 18.1 14.6 81 1.9 WSW 7 11 4 6 1018.2 1018.1 0.0
03/11:00pm 18.5 18.8 15.0 80 2.0 WSW 7 9 4 5 1018.2 1018.1 0.0
03/10:30pm 18.9 18.9 15.2 79 2.2 WSW 9 13 5 7 1018.5 1018.4 0.0
03/10:00pm 19.3 19.3 15.2 77 2.4 W 9 11 5 6 1018.6 1018.5 0.0
03/09:30pm 19.6 19.1 15.0 75 2.7 W 11 17 6 9 1018.6 1018.5 0.0
03/09:00pm 19.7 19.1 14.7 73 2.9 W 11 15 6 8 1018.5 1018.4 0.0
03/08:30pm 19.6 19.1 13.8 69 3.3 W 9 11 5 6 1018.3 1018.2 0.0
03/08:00pm 19.5 18.9 11.8 61 4.3 W 6 7 3 4 1018.1 1018.0 0.0
03/07:30pm 20.4 19.7 11.9 58 4.7 W 7 13 4 7 1017.6 1017.5 0.0
03/07:00pm 20.9 19.5 12.1 57 4.9 W 11 17 6 9 1017.3 1017.2 0.0
03/06:30pm 21.3 20.2 13.0 59 4.7 W 11 17 6 9 1016.8 1016.8 0.0
03/06:00pm 22.1 19.1 12.4 54 5.5 W 20 28 11 15 1016.4 1016.4 0.0
03/05:30pm 23.2 19.1 11.3 47 6.7 WNW 24 32 13 17 1016.2 1016.2 0.0
03/05:00pm 24.1 19.3 10.4 42 7.6 WNW 26 33 14 18 1016.1 1016.1 0.0
03/04:30pm 24.5 19.5 8.0 35 8.8 WNW 24 30 13 16 1016.0 1016.0 0.0
03/04:00pm 25.6 20.9 9.4 36 8.9 WNW 24 32 13 17 1016.0 1016.0 0.0
03/03:30pm 26.2 21.4 7.3 30 10.0 WNW 22 32 12 17 1015.9 1015.9 0.0
03/03:00pm 26.6 21.7 7.1 29 10.3 WNW 22 28 12 15 1016.0 1016.0 0.0
03/02:30pm 26.8 22.3 6.8 28 10.5 WNW 20 28 11 15 1016.0 1016.0 0.0
03/02:00pm 27.4 23.1 7.8 29 10.5 WNW 20 26 11 14 1016.2 1016.2 0.0
03/01:30pm 26.8 22.6 8.3 31 10.0 WNW 20 26 11 14 1016.6 1016.6 0.0
03/01:00pm 26.4 22.4 8.4 32 9.7 WNW 19 26 10 14 1017.1 1017.0 0.0
03/12:30pm 26.4 22.5 8.8 33 9.6 WNW 19 26 10 14 1017.3 1017.2 0.0
03/12:00pm 26.4 22.8 8.4 32 9.7 WNW 17 26 9 14 1017.5 1017.4 0.0
03/11:30am 26.6 25.1 6.6 28 10.5 WNW 4 13 2 7 1017.7 1017.6 0.0
03/11:00am 25.6 24.0 6.3 29 10.0 NNW 4 9 2 5 1018.2 1018.1 0.0
03/10:30am 24.5 23.6 7.6 34 8.9 NW 2 6 1 3 1018.4 1018.3 0.0
03/10:00am 23.4 22.2 7.9 37 8.1 SSW 4 7 2 4 1018.5 1018.4 0.0
03/09:30am 22.1 20.9 7.9 40 7.4 SSW 4 6 2 3 1018.6 1018.5 0.0
03/09:00am 20.6 18.1 5.0 36 7.6 SSW 7 9 4 5 1018.5 1018.4 0.0
03/08:30am 18.3 15.4 4.5 40 6.6 SSW 9 11 5 6 1018.1 1018.0 0.0
03/08:00am 16.4 14.0 5.1 47 5.4 SW 7 9 4 5 1017.9 1017.8 0.0
03/07:30am 14.0 11.6 5.1 55 4.2 SW 7 9 4 5 1017.6 1017.5 0.0
03/07:00am 11.9 9.5 5.3 64 3.0 SW 7 9 4 5 1017.3 1017.2 0.0
03/06:30am 11.3 8.5 5.2 66 2.8 SW 9 11 5 6 1017.0 1016.9 0.0
03/06:00am 11.4 8.2 5.3 66 2.8 SW 11 13 6 7 1016.8 1016.8 0.0
03/05:30am 11.6 8.8 5.3 65 2.9 SW 9 11 5 6 1016.4 1016.4 0.0
03/05:00am 12.5 9.4 5.7 63 3.2 SW 11 15 6 8 1016.2 1016.2 0.0
03/04:30am 12.3 9.7 6.1 66 2.9 SW 9 11 5 6 1016.1 1016.1 0.0
03/04:00am 12.8 10.4 6.8 67 2.9 SW 9 9 5 5 1016.0 1016.0 0.0
03/03:30am 13.4 10.7 7.4 67 2.9 SW 11 13 6 7 1016.3 1016.3 0.0
03/03:00am 14.1 12.2 9.1 72 2.5 SW 9 11 5 6 1016.5 1016.5 0.0
03/02:30am 14.8 13.2 10.2 74 2.4 SW 9 13 5 7 1016.6 1016.6 0.0
03/02:00am 15.6 14.7 11.2 75 2.4 SSW 7 7 4 4 1016.7 1016.7 0.0
03/01:30am 16.4 15.8 11.8 74 2.5 SSW 6 7 3 4 1017.0 1016.9 0.0
03/01:00am 17.4 16.1 12.5 73 2.7 SSW 11 13 6 7 1017.3 1017.2 0.0
03/12:30am 17.7 16.9 12.8 73 2.7 S 9 11 5 6 1017.5 1017.4 0.0
03/12:00am 17.8 17.1 13.1 74 2.6 SSW 9 9 5 5 1017.8 1017.7 0.0
 
Date/Time
WST
Temp
°C
App
Temp
°C
Dew
Point
Rel
Hum
%
Delta-T
°C
Wind Press
QNH
hPa
Press
MSL
hPa
Rain
since 9 am
mm
Dir
 
Spd
km/h
Gust
km/h
Spd
kts
Gust
kts
02/11:30pm 18.7 18.6 13.8 73 2.8 SW 7 9 4 5 1017.9 1017.8 0.0
02/11:00pm 19.0 18.7 14.3 74 2.7 SW 9 11 5 6 1018.1 1018.0 0.0
02/10:30pm 18.9 18.7 13.1 69 3.3 W 6 6 3 3 1017.9 1017.8 0.0
02/10:00pm 18.6 18.6 13.5 72 2.9 W 6 6 3 3 1018.0 1017.9 0.0
02/09:30pm 18.7 19.2 14.0 74 2.7 W 4 4 2 2 1018.0 1017.9 0.0
02/09:00pm 19.1 19.3 14.1 73 2.9 W 6 6 3 3 1017.9 1017.8 0.0
02/08:30pm 19.7 20.1 13.6 68 3.5 W 4 6 2 3 1017.8 1017.7 0.0
02/08:00pm 20.2 20.2 13.6 66 3.8 W 6 9 3 5 1017.6 1017.5 0.0
02/07:30pm 21.0 21.1 13.9 64 4.1 N 6 9 3 5 1017.1 1017.0 0.0
02/07:00pm 21.8 20.7 13.2 58 4.9 N 11 17 6 9 1016.5 1016.5 0.0
02/06:30pm 22.6 20.0 12.0 51 6.0 NNE 17 24 9 13 1016.0 1016.0 0.0
02/06:00pm 23.5 19.6 10.9 45 7.0 NNE 22 32 12 17 1015.5 1015.5 0.0
02/05:30pm 24.9 19.6 8.4 35 8.8 NNE 26 35 14 19 1015.3 1015.3 0.0
02/05:00pm 25.7 19.8 7.3 31 9.7 NNE 28 39 15 21 1015.0 1015.0 0.0
02/04:30pm 26.5 20.3 8.0 31 9.9 NNE 30 41 16 22 1014.5 1014.5 0.0
02/04:00pm 27.4 21.9 9.3 32 10.0 NNE 28 39 15 21 1014.2 1014.2 0.0
02/03:30pm 26.7 20.2 8.2 31 10.0 NNE 32 41 17 22 1014.3 1014.3 0.0
02/03:00pm 27.5 21.2 7.4 28 10.7 NNE 30 43 16 23 1014.3 1014.3 0.0
02/02:30pm 28.0 19.8 5.0 23 11.8 NNE 37 46 20 25 1014.3 1014.3 0.0
02/02:00pm 28.9 21.4 3.7 20 12.7 NNE 32 46 17 25 1014.6 1014.6 0.0
02/01:30pm 28.6 22.3 5.5 23 12.0 N 28 41 15 22 1014.7 1014.7 0.0
02/01:00pm 29.1 22.2 4.6 21 12.6 N 30 43 16 23 1014.8 1014.8 0.0
02/12:30pm 30.0 24.4 1.5 16 14.0 NNE 20 35 11 19 1015.3 1015.3 0.0
02/12:00pm 29.3 25.0 -1.9 13 14.3 NNE 11 24 6 13 1016.0 1016.0 0.0
02/11:30am 29.0 24.0 -1.2 14 14.0 NE 15 26 8 14 1016.3 1016.3 0.0
02/11:00am 28.4 22.6 -1.6 14 13.7 NNE 19 30 10 16 1016.5 1016.5 0.0
02/10:30am 28.4 22.6 -1.6 14 13.8 ENE 19 26 10 14 1016.7 1016.7 0.0
02/10:00am 27.9 22.2 -1.1 15 13.4 E 19 24 10 13 1016.6 1016.6 0.0
02/09:30am 26.1 20.5 0.0 18 12.1 E 19 26 10 14 1016.5 1016.5 0.0
02/09:00am 24.5 18.5 0.8 21 11.0 E 22 30 12 16 1016.4 1016.4 0.0
02/08:30am 23.1 19.3 1.5 24 10.1 ESE 11 15 6 8 1016.2 1016.2 0.0
02/08:00am 20.9 17.4 1.2 27 9.0 SSE 9 13 5 7 1016.1 1016.1 0.0
02/07:30am 16.9 13.9 1.8 36 6.7 SSE 7 9 4 5 1015.8 1015.8 0.0
02/07:00am 13.3 10.3 1.9 46 4.9 SSE 7 9 4 5 1015.7 1015.7 0.0
02/06:30am 11.6 7.8 1.5 50 4.3 S 11 13 6 7 1015.3 1015.3 0.0
02/06:00am 11.1 7.6 1.4 51 4.1 SSE 9 11 5 6 1015.0 1015.0 0.0
02/05:30am 11.7 8.2 1.4 49 4.3 S 9 11 5 6 1014.8 1014.8 0.0
02/05:00am 12.0 8.5 1.1 47 4.6 S 9 11 5 6 1014.6 1014.6 0.0
02/04:30am 12.3 8.8 1.0 46 4.8 S 9 11 5 6 1014.6 1014.6 0.0
02/04:00am 12.6 9.1 1.3 46 4.8 S 9 11 5 6 1014.5 1014.5 0.0
02/03:30am 13.1 9.2 1.1 44 5.1 SSW 11 15 6 8 1014.5 1014.5 0.0
02/03:00am 12.6 9.3 2.5 50 4.4 SSW 9 11 5 6 1014.6 1014.6 0.0
02/02:30am 12.9 10.2 3.8 54 4.1 SSW 7 7 4 4 1014.7 1014.7 0.0
02/02:00am 13.5 11.4 4.1 53 4.3 SSW 4 6 2 3 1014.9 1014.9 0.0
02/01:30am 13.9 11.1 5.3 56 4.0 SW 9 11 5 6 1015.0 1015.0 0.0
02/01:00am 14.3 12.1 8.0 66 3.1 SW 9 11 5 6 1015.2 1015.2 0.0
02/12:30am 15.5 14.5 10.9 74 2.4 SW 7 7 4 4 1015.5 1015.5 0.0
02/12:00am 15.9 14.8 13.2 84 1.5 SW 11 11 6 6 1015.5 1015.5 0.0
 
Date/Time
WST
Temp
°C
App
Temp
°C
Dew
Point
Rel
Hum
%
Delta-T
°C
Wind Press
QNH
hPa
Press
MSL
hPa
Rain
since 9 am
mm
Dir
 
Spd
km/h
Gust
km/h
Spd
kts
Gust
kts
01/11:30pm 16.9 17.3 15.4 91 0.9 WSW 7 9 4 5 1015.6 1015.6 0.0
01/11:00pm 17.6 18.1 15.0 85 1.5 WSW 6 6 3 3 1015.7 1015.7 0.0
01/10:30pm 18.2 18.7 15.1 82 1.8 WSW 6 11 3 6 1015.7 1015.7 0.0
01/10:00pm 18.4 18.0 15.3 82 1.8 W 11 13 6 7 1015.9 1015.9 0.0
01/09:30pm 18.8 19.1 15.1 79 2.2 W 7 9 4 5 1016.0 1016.0 0.0
01/09:00pm 19.7 19.2 14.9 74 2.8 WSW 11 13 6 7 1015.8 1015.8 0.0
01/08:30pm 20.2 19.8 15.2 73 2.9 WSW 11 13 6 7 1015.6 1015.6 0.0
01/08:00pm 21.0 19.9 15.3 70 3.4 W 15 19 8 10 1015.4 1015.4 0.0
01/07:30pm 21.2 19.3 15.3 69 3.5 W 19 24 10 13 1014.9 1014.9 0.0
01/07:00pm 21.7 19.0 14.6 64 4.2 W 22 30 12 16 1014.5 1014.5 0.0
01/06:30pm 22.2 18.7 13.5 57 5.0 WNW 24 37 13 20 1014.2 1014.2 0.0
01/06:00pm 23.0 18.7 12.0 50 6.2 WNW 26 35 14 19 1013.8 1013.8 0.0
01/05:30pm 24.2 19.3 9.8 40 7.9 WNW 26 35 14 19 1013.6 1013.6 0.0
01/05:00pm 25.1 19.5 7.3 32 9.4 WNW 26 37 14 20 1013.5 1013.5 0.0
01/04:30pm 25.4 19.7 8.4 34 9.1 WNW 28 39 15 21 1013.3 1013.3 0.0
01/04:00pm 26.4 20.6 7.9 31 9.9 WNW 28 35 15 19 1013.3 1013.3 0.0
01/03:30pm 27.2 21.5 6.6 27 10.8 WNW 26 37 14 20 1013.3 1013.3 0.0
01/03:00pm 28.2 22.5 6.9 26 11.3 WNW 26 35 14 19 1013.2 1013.2 0.0
01/02:30pm 28.9 24.7 -1.2 14 14.0 SW 11 20 6 11 1013.5 1013.5 0.0
01/02:00pm 29.4 25.0 0.1 15 14.0 SSW 13 24 7 13 1013.8 1013.8 0.0
01/01:30pm 28.6 24.2 0.3 16 13.4 S 13 20 7 11 1014.2 1014.2 0.0
01/01:00pm 28.6 23.6 -1.5 14 13.8 SSW 15 24 8 13 1014.7 1014.7 0.0
01/12:30pm 26.9 22.3 -1.0 16 12.8 SSW 13 24 7 13 1015.3 1015.3 0.0
01/12:00pm 27.3 22.5 0.1 17 12.7 SSW 15 28 8 15 1015.7 1015.7 0.0
01/11:30am 26.6 22.4 1.8 20 11.9 SW 13 24 7 13 1016.1 1016.1 0.0
01/11:00am 26.5 21.4 3.1 22 11.5 SSW 19 32 10 17 1016.4 1016.4 0.0
01/10:30am 26.0 20.9 3.9 24 11.0 S 20 32 11 17 1016.6 1016.6 0.0
01/10:00am 25.0 20.2 4.7 27 10.2 S 19 28 10 15 1016.8 1016.8 0.0
01/09:30am 23.7 19.0 5.1 30 9.3 S 19 24 10 13 1017.1 1017.0 0.0
01/09:00am 22.2 16.9 5.2 33 8.4 S 22 28 12 15 1017.3 1017.2 0.0
01/08:30am 20.5 14.7 6.1 39 7.2 S 26 33 14 18 1017.3 1017.2 0.0
01/08:00am 18.8 13.9 6.9 46 6.0 S 22 30 12 16 1017.3 1017.2 0.0
01/07:30am 17.0 13.5 7.1 52 4.9 SSW 15 20 8 11 1017.3 1017.2 0.0

Other Formats:

Comma delimited format used in spreadsheet applications
http://www.bom.gov.au/fwo/IDW60801/IDW60801.94306.axf

JavaScript Object Notation format (JSON) in row-major order
http://www.bom.gov.au/fwo/IDW60801/IDW60801.94306.json